EHMG

L9-ff-1 Sea

L9-ff-1 Sea, The Netherlands
METAR EHMG 222055Z AUTO 32024KT 4600 BR NCD 10/08 Q1007 W///H///
Observed Flight Rules
Apr-22 @ 20:55 UTC (41 minutes ago) Instrument Flight Rules
Wind Visibility Clouds Conditions
320° at 24 knots 4,603 meters
  • Clear skies
  • Mist
Temperatures Readings
Current 10°C / 50°F
Dewpoint 8°C / 46°F
Humidity 88%
Altimeter 29.73" Hg
Pressure 1007 hPa
Elevation 50
METAR EHMG 222055Z AUTO 32024KT 4600 BR NCD 10/08 Q1007 W///H///
Observed Flight Rules
Apr-22 @ 20:55 UTC
(41 minutes ago)
IFR
Wind Visibility
320° at 24 knots 4,603 meters
Clouds
  • Clear skies
Conditions
  • Mist
Temperature Dewpoint
10°C / 50°F 8°C / 46°F
Humidity Altimeter Pressure
88% 29.73" Hg 1007 hPa